createdAt,value
2017-11-09T00:00:14.692Z,0
2017-11-09T00:00:55.268Z,0
2017-11-09T00:01:35.834Z,0
2017-11-09T00:02:16.397Z,0
2017-11-09T00:02:56.957Z,0
2017-11-09T00:03:37.533Z,0
2017-11-09T00:04:18.082Z,0
2017-11-09T00:04:58.656Z,0
2017-11-09T00:05:39.230Z,0
2017-11-09T00:06:19.782Z,0
2017-11-09T00:07:00.367Z,0
2017-11-09T00:07:40.922Z,0
2017-11-09T00:08:21.493Z,0
2017-11-09T00:09:02.965Z,0
2017-11-09T00:09:43.522Z,0
2017-11-09T00:10:24.084Z,0
2017-11-09T00:11:04.644Z,0
2017-11-09T00:11:45.207Z,0
2017-11-09T00:12:25.775Z,0
2017-11-09T00:13:06.333Z,0
2017-11-09T00:13:46.915Z,0
2017-11-09T00:14:27.470Z,0
2017-11-09T00:15:08.032Z,0
2017-11-09T00:15:48.597Z,0
2017-11-09T00:16:29.169Z,0
2017-11-09T00:17:09.745Z,0
2017-11-09T00:17:50.312Z,0
2017-11-09T00:18:30.891Z,0
2017-11-09T00:19:11.453Z,0
2017-11-09T00:19:52.014Z,0
2017-11-09T00:20:32.578Z,0
2017-11-09T00:21:13.157Z,0
2017-11-09T00:21:53.727Z,0
2017-11-09T00:22:34.284Z,0
2017-11-09T00:23:15.032Z,0
2017-11-09T00:23:55.617Z,0
2017-11-09T00:24:36.189Z,0
2017-11-09T00:25:16.877Z,0
2017-11-09T00:25:57.434Z,0
2017-11-09T00:26:38.000Z,0
2017-11-09T00:27:19.032Z,0
2017-11-09T00:28:01.325Z,0
2017-11-09T00:28:44.044Z,0
2017-11-09T00:29:24.587Z,0
2017-11-09T00:30:05.277Z,0
2017-11-09T00:30:45.691Z,0
2017-11-09T00:31:27.232Z,0
2017-11-09T00:32:07.769Z,0
2017-11-09T00:32:48.311Z,0
2017-11-09T00:33:28.876Z,0
2017-11-09T00:34:10.880Z,0
2017-11-09T00:34:51.652Z,0
2017-11-09T00:35:32.199Z,0
2017-11-09T00:36:12.746Z,0
2017-11-09T00:36:53.310Z,0
2017-11-09T00:37:33.881Z,0
2017-11-09T00:38:14.434Z,0
2017-11-09T00:38:55.011Z,0
2017-11-09T00:39:35.580Z,0
2017-11-09T00:40:16.135Z,0
2017-11-09T00:40:56.704Z,0
2017-11-09T00:41:37.249Z,0
2017-11-09T00:42:17.806Z,0
2017-11-09T00:42:58.367Z,0
2017-11-09T00:43:38.922Z,0
2017-11-09T00:44:19.481Z,0
2017-11-09T00:45:00.141Z,0
2017-11-09T00:45:40.691Z,0
2017-11-09T00:46:21.274Z,0
2017-11-09T00:47:01.819Z,0
2017-11-09T00:47:42.378Z,0
2017-11-09T00:48:22.943Z,0
2017-11-09T00:49:03.520Z,0
2017-11-09T00:49:44.077Z,0
2017-11-09T00:50:24.658Z,0
2017-11-09T00:51:05.261Z,0
2017-11-09T00:51:45.861Z,0
2017-11-09T00:52:26.377Z,0
2017-11-09T00:53:07.029Z,0
2017-11-09T00:53:47.521Z,0
2017-11-09T00:54:28.125Z,0
2017-11-09T00:55:08.687Z,0
2017-11-09T00:55:49.245Z,0
2017-11-09T00:56:29.796Z,0
2017-11-09T00:57:10.386Z,0
2017-11-09T00:57:50.950Z,0
2017-11-09T00:58:31.510Z,0
2017-11-09T00:59:12.068Z,0
2017-11-09T00:59:52.620Z,0
2017-11-09T01:00:33.212Z,0
2017-11-09T01:01:13.795Z,0
2017-11-09T01:01:54.357Z,0
2017-11-09T01:02:34.916Z,0
2017-11-09T01:03:15.477Z,0
2017-11-09T01:03:56.045Z,0
2017-11-09T01:04:36.617Z,0
2017-11-09T01:05:17.194Z,0
2017-11-09T01:05:57.770Z,0
2017-11-09T01:06:38.316Z,0
2017-11-09T01:07:18.884Z,0
2017-11-09T01:07:59.449Z,0
2017-11-09T01:08:40.024Z,0
2017-11-09T01:09:20.591Z,0
2017-11-09T01:10:01.300Z,0
2017-11-09T01:10:41.874Z,0
2017-11-09T01:11:22.432Z,0
2017-11-09T01:12:03.003Z,0
2017-11-09T01:12:43.564Z,0
2017-11-09T01:13:24.118Z,0
2017-11-09T01:14:04.696Z,0
2017-11-09T01:14:45.796Z,0
2017-11-09T01:15:25.820Z,0
2017-11-09T01:16:06.456Z,0
2017-11-09T01:16:47.040Z,0
2017-11-09T01:17:27.569Z,0
2017-11-09T01:18:08.139Z,0
2017-11-09T01:18:48.705Z,0
2017-11-09T01:19:29.264Z,0
2017-11-09T01:20:09.817Z,0
2017-11-09T01:20:50.377Z,0
2017-11-09T01:21:30.932Z,0
2017-11-09T01:22:11.641Z,0
2017-11-09T01:22:52.211Z,0
2017-11-09T01:23:32.781Z,0
2017-11-09T01:24:13.327Z,0
2017-11-09T01:24:53.915Z,0
2017-11-09T01:25:34.451Z,0
2017-11-09T01:26:15.011Z,0
2017-11-09T01:26:55.572Z,0
2017-11-09T01:27:36.113Z,0
2017-11-09T01:28:16.673Z,0
2017-11-09T01:28:57.228Z,0
2017-11-09T01:29:37.796Z,0
2017-11-09T01:30:18.364Z,0
2017-11-09T01:30:58.929Z,0
2017-11-09T01:31:39.498Z,0
2017-11-09T01:32:20.047Z,0
2017-11-09T01:33:00.595Z,0
2017-11-09T01:33:41.185Z,0
2017-11-09T01:34:21.728Z,0
2017-11-09T01:35:02.341Z,0
2017-11-09T01:35:43.808Z,0
2017-11-09T01:36:23.472Z,0
2017-11-09T01:37:04.033Z,0
2017-11-09T01:37:44.586Z,0
2017-11-09T01:38:25.399Z,0
2017-11-09T01:39:05.949Z,0
2017-11-09T01:39:46.516Z,0
2017-11-09T01:40:27.095Z,0
2017-11-09T01:41:07.685Z,0
2017-11-09T01:41:48.260Z,0
2017-11-09T01:42:28.815Z,0
2017-11-09T01:43:09.362Z,0
2017-11-09T01:43:49.922Z,0
2017-11-09T01:44:30.540Z,0
2017-11-09T01:45:11.015Z,0
2017-11-09T01:45:51.552Z,0
2017-11-09T01:46:32.101Z,0
2017-11-09T01:47:12.718Z,0
2017-11-09T01:47:53.269Z,0
2017-11-09T01:48:33.816Z,0
2017-11-09T01:49:14.389Z,0
2017-11-09T01:49:54.957Z,0
2017-11-09T01:50:35.507Z,0
2017-11-09T01:51:16.070Z,0
2017-11-09T01:51:56.610Z,0
2017-11-09T01:52:37.171Z,0
2017-11-09T01:53:17.741Z,0
2017-11-09T01:53:58.307Z,0
2017-11-09T01:54:38.860Z,0
2017-11-09T01:55:19.415Z,0
2017-11-09T01:55:59.978Z,0
2017-11-09T01:56:40.535Z,0
2017-11-09T01:57:21.091Z,0
2017-11-09T01:58:01.644Z,0
2017-11-09T01:58:42.211Z,0
2017-11-09T01:59:22.761Z,0
2017-11-09T02:00:03.346Z,0
2017-11-09T02:00:43.902Z,0
2017-11-09T02:01:24.475Z,0
2017-11-09T02:02:05.028Z,0
2017-11-09T02:02:45.593Z,0
2017-11-09T02:03:26.168Z,0
2017-11-09T02:04:06.713Z,0
2017-11-09T02:04:47.276Z,0
2017-11-09T02:05:27.824Z,0
2017-11-09T02:06:08.401Z,0
2017-11-09T02:06:48.973Z,0
2017-11-09T02:07:29.537Z,0
2017-11-09T02:08:10.111Z,0
2017-11-09T02:08:50.670Z,0
2017-11-09T02:09:31.234Z,0
2017-11-09T02:10:11.796Z,0
2017-11-09T02:10:52.350Z,0
2017-11-09T02:11:32.897Z,0
2017-11-09T02:12:13.464Z,0
2017-11-09T02:12:54.004Z,0
2017-11-09T02:13:34.567Z,0
2017-11-09T02:14:15.115Z,0
2017-11-09T02:14:55.668Z,0
2017-11-09T02:15:36.218Z,0
2017-11-09T02:16:16.777Z,0
2017-11-09T02:16:57.332Z,0
2017-11-09T02:17:37.870Z,0
2017-11-09T02:18:18.408Z,0
2017-11-09T02:18:58.983Z,0
2017-11-09T02:19:39.541Z,0
2017-11-09T02:20:20.095Z,0
2017-11-09T02:21:00.650Z,0
2017-11-09T02:21:41.242Z,0
2017-11-09T02:22:21.816Z,0
2017-11-09T02:23:02.372Z,0
2017-11-09T02:23:42.927Z,0
2017-11-09T02:24:23.498Z,0
2017-11-09T02:25:04.059Z,0
2017-11-09T02:25:44.607Z,0
2017-11-09T02:26:25.185Z,0
2017-11-09T02:27:05.727Z,0
2017-11-09T02:27:46.288Z,0
2017-11-09T02:28:26.855Z,0
2017-11-09T02:29:07.449Z,0
2017-11-09T02:29:47.977Z,0
2017-11-09T02:30:28.524Z,0
2017-11-09T02:31:09.109Z,0
2017-11-09T02:31:49.670Z,0
2017-11-09T02:32:30.233Z,0
2017-11-09T02:33:10.805Z,0
2017-11-09T02:33:51.370Z,0
2017-11-09T02:34:31.929Z,0
2017-11-09T02:35:12.510Z,0
2017-11-09T02:35:53.071Z,0
2017-11-09T02:36:33.643Z,0
2017-11-09T02:37:14.210Z,0
2017-11-09T02:37:54.764Z,0
2017-11-09T02:38:35.329Z,0
2017-11-09T02:39:15.897Z,0
2017-11-09T02:39:56.456Z,0
2017-11-09T02:40:37.017Z,0
2017-11-09T02:41:17.578Z,0
2017-11-09T02:41:58.138Z,0
2017-11-09T02:42:38.703Z,0
2017-11-09T02:43:19.297Z,0
2017-11-09T02:43:59.884Z,0
2017-11-09T02:44:40.440Z,0
2017-11-09T02:45:21.003Z,0
2017-11-09T02:46:01.569Z,0
2017-11-09T02:46:42.142Z,0
2017-11-09T02:47:22.696Z,0
2017-11-09T02:48:03.250Z,0
2017-11-09T02:48:43.816Z,0
2017-11-09T02:49:24.391Z,0
2017-11-09T02:50:04.968Z,0
2017-11-09T02:50:45.519Z,0
2017-11-09T02:51:26.075Z,0
2017-11-09T02:52:06.638Z,0
2017-11-09T02:52:47.208Z,0
2017-11-09T02:53:27.754Z,0
2017-11-09T02:54:08.316Z,0
2017-11-09T02:54:48.866Z,0
2017-11-09T02:55:29.434Z,0
2017-11-09T02:56:09.994Z,0
2017-11-09T02:56:50.560Z,0
2017-11-09T02:57:31.098Z,0
2017-11-09T02:58:11.661Z,0
2017-11-09T02:58:52.257Z,0
2017-11-09T02:59:32.816Z,0
2017-11-09T03:00:13.383Z,0
2017-11-09T03:00:53.938Z,0
2017-11-09T03:01:34.505Z,0
2017-11-09T03:02:15.049Z,0
2017-11-09T03:02:55.602Z,0
2017-11-09T03:03:36.182Z,0
2017-11-09T03:04:16.746Z,0
2017-11-09T03:04:57.305Z,0
2017-11-09T03:05:37.873Z,0
2017-11-09T03:06:18.427Z,0
2017-11-09T03:06:59.001Z,0
2017-11-09T03:07:39.567Z,0
2017-11-09T03:08:20.117Z,0
2017-11-09T03:09:00.693Z,0
2017-11-09T03:09:41.258Z,0
2017-11-09T03:10:21.826Z,0
2017-11-09T03:11:02.438Z,0
2017-11-09T03:11:42.987Z,0
2017-11-09T03:12:23.545Z,0
2017-11-09T03:13:04.102Z,0
2017-11-09T03:13:44.675Z,0
2017-11-09T03:14:25.235Z,0
2017-11-09T03:15:05.792Z,0
2017-11-09T03:15:46.357Z,0
2017-11-09T03:16:26.954Z,0
2017-11-09T03:17:07.517Z,0
2017-11-09T03:17:48.079Z,0
2017-11-09T03:18:28.663Z,0
2017-11-09T03:19:09.228Z,0
2017-11-09T03:19:49.823Z,0
2017-11-09T03:20:30.394Z,0
2017-11-09T03:21:10.974Z,0
2017-11-09T03:21:51.556Z,0
2017-11-09T03:22:32.087Z,0
2017-11-09T03:23:12.901Z,0
2017-11-09T03:23:53.455Z,0
2017-11-09T03:24:34.017Z,0
2017-11-09T03:25:14.581Z,0
2017-11-09T03:25:55.138Z,0
2017-11-09T03:26:35.710Z,0
2017-11-09T03:27:16.272Z,0
2017-11-09T03:27:56.841Z,0
2017-11-09T03:28:37.398Z,0
2017-11-09T03:29:17.960Z,0
2017-11-09T03:29:58.507Z,0
2017-11-09T03:30:40.629Z,0
2017-11-09T03:31:21.184Z,0
2017-11-09T03:32:01.752Z,0
2017-11-09T03:32:42.324Z,0
2017-11-09T03:33:22.879Z,0
2017-11-09T03:34:03.433Z,0
2017-11-09T03:34:43.965Z,0
2017-11-09T03:35:24.537Z,0
2017-11-09T03:36:05.111Z,0
2017-11-09T03:36:45.679Z,0
2017-11-09T03:37:26.843Z,0
2017-11-09T03:38:07.415Z,0
2017-11-09T03:38:47.972Z,0
2017-11-09T03:39:28.564Z,0
2017-11-09T03:40:09.125Z,0
2017-11-09T03:40:49.691Z,0
2017-11-09T03:41:30.253Z,0
2017-11-09T03:42:10.816Z,0
2017-11-09T03:42:51.373Z,0
2017-11-09T03:43:31.926Z,0
2017-11-09T03:44:12.486Z,0
2017-11-09T03:44:53.039Z,0
2017-11-09T03:45:33.594Z,0
2017-11-09T03:46:14.134Z,0
2017-11-09T03:46:54.699Z,0
2017-11-09T03:47:35.257Z,0
2017-11-09T03:48:15.815Z,0
2017-11-09T03:48:56.400Z,0
2017-11-09T03:49:36.967Z,0
2017-11-09T03:50:17.525Z,0
2017-11-09T03:50:58.105Z,0
2017-11-09T03:51:38.650Z,0
2017-11-09T03:52:19.217Z,0
2017-11-09T03:52:59.779Z,0
2017-11-09T03:53:40.377Z,0
2017-11-09T03:54:20.995Z,0
2017-11-09T03:55:01.523Z,0
2017-11-09T03:55:42.077Z,0
2017-11-09T03:56:22.648Z,0
2017-11-09T03:57:03.209Z,0
2017-11-09T03:57:43.756Z,0
2017-11-09T03:58:24.311Z,0
2017-11-09T03:59:04.867Z,0
2017-11-09T03:59:45.425Z,0
2017-11-09T04:00:25.985Z,0
2017-11-09T04:01:06.542Z,0
2017-11-09T04:01:47.095Z,0
2017-11-09T04:02:27.670Z,0
2017-11-09T04:03:08.243Z,0
2017-11-09T04:03:48.849Z,0
2017-11-09T04:04:29.396Z,0
2017-11-09T04:05:09.953Z,0
2017-11-09T04:05:50.511Z,0
2017-11-09T04:06:31.056Z,0
2017-11-09T04:07:11.642Z,0
2017-11-09T04:07:52.199Z,0
2017-11-09T04:08:32.771Z,0
2017-11-09T04:09:13.348Z,0
2017-11-09T04:09:53.898Z,0
2017-11-09T04:10:34.478Z,0
2017-11-09T04:11:15.057Z,0
2017-11-09T04:11:55.598Z,0
2017-11-09T04:12:36.178Z,0
2017-11-09T04:13:16.743Z,0
2017-11-09T04:13:57.296Z,0
2017-11-09T04:14:37.870Z,0
2017-11-09T04:15:18.425Z,0
2017-11-09T04:15:58.971Z,0
2017-11-09T04:16:39.541Z,0
2017-11-09T04:17:20.093Z,0
2017-11-09T04:18:00.650Z,0
2017-11-09T04:18:41.209Z,0
2017-11-09T04:19:21.774Z,0
2017-11-09T04:20:02.437Z,0
2017-11-09T04:20:43.001Z,0
2017-11-09T04:21:23.562Z,0
2017-11-09T04:22:04.109Z,0
2017-11-09T04:22:44.698Z,0
2017-11-09T04:23:25.244Z,0
2017-11-09T04:24:05.804Z,0
2017-11-09T04:24:46.380Z,0
2017-11-09T04:25:26.952Z,0
2017-11-09T04:26:07.535Z,0
2017-11-09T04:26:48.087Z,0
2017-11-09T04:27:28.643Z,0
2017-11-09T04:28:09.473Z,0
2017-11-09T04:28:50.101Z,0
2017-11-09T04:29:30.636Z,0
2017-11-09T04:30:11.182Z,0
2017-11-09T04:30:51.758Z,0
2017-11-09T04:31:32.323Z,0
2017-11-09T04:32:13.196Z,0
2017-11-09T04:32:53.739Z,0
2017-11-09T04:33:34.309Z,0
2017-11-09T04:34:14.901Z,0
2017-11-09T04:34:55.469Z,0
2017-11-09T04:35:36.029Z,0
2017-11-09T04:36:16.577Z,0
2017-11-09T04:36:57.158Z,0
2017-11-09T04:37:37.719Z,0
2017-11-09T04:38:18.287Z,0
2017-11-09T04:38:58.861Z,0
2017-11-09T04:39:39.395Z,0
2017-11-09T04:40:19.942Z,0
2017-11-09T04:41:00.518Z,0
2017-11-09T04:41:41.081Z,0
2017-11-09T04:42:21.635Z,0
2017-11-09T04:43:02.186Z,0
2017-11-09T04:43:42.747Z,0
2017-11-09T04:44:23.287Z,0
2017-11-09T04:45:03.841Z,0
2017-11-09T04:45:44.411Z,0
2017-11-09T04:46:24.983Z,0
2017-11-09T04:47:05.536Z,0
2017-11-09T04:47:46.069Z,0
2017-11-09T04:48:26.690Z,0
2017-11-09T04:49:07.267Z,0
2017-11-09T04:49:47.829Z,0
2017-11-09T04:50:28.392Z,0
2017-11-09T04:51:08.948Z,0
2017-11-09T04:51:49.509Z,0
2017-11-09T04:52:30.061Z,0
2017-11-09T04:53:10.634Z,0
2017-11-09T04:53:51.171Z,0
2017-11-09T04:54:31.729Z,0
2017-11-09T04:55:12.299Z,0
2017-11-09T04:55:52.827Z,0
2017-11-09T04:56:33.397Z,0
2017-11-09T04:57:13.933Z,0
2017-11-09T04:57:54.482Z,0
2017-11-09T04:58:35.085Z,0
2017-11-09T04:59:15.635Z,0
2017-11-09T04:59:56.200Z,0
2017-11-09T05:00:36.763Z,0
2017-11-09T05:01:17.368Z,0
2017-11-09T05:01:57.908Z,0
2017-11-09T05:02:38.464Z,0
2017-11-09T05:03:19.029Z,0
2017-11-09T05:03:59.602Z,0
2017-11-09T05:04:40.165Z,0
2017-11-09T05:05:20.739Z,0
2017-11-09T05:06:01.281Z,0
2017-11-09T05:06:41.830Z,0
2017-11-09T05:07:22.380Z,0
2017-11-09T05:08:02.936Z,0
2017-11-09T05:08:43.483Z,0
2017-11-09T05:09:24.045Z,0
2017-11-09T05:10:04.612Z,0
2017-11-09T05:10:45.169Z,0
2017-11-09T05:11:25.732Z,0
2017-11-09T05:12:06.285Z,0
2017-11-09T05:12:46.880Z,0
2017-11-09T05:13:27.442Z,0
2017-11-09T05:14:07.996Z,0
2017-11-09T05:14:48.564Z,0
2017-11-09T05:15:29.150Z,0
2017-11-09T05:16:09.736Z,0
2017-11-09T05:16:50.862Z,0
2017-11-09T05:17:30.863Z,0
2017-11-09T05:18:11.410Z,0
2017-11-09T05:18:51.966Z,0
2017-11-09T05:19:32.530Z,0
2017-11-09T05:20:13.083Z,0
2017-11-09T05:20:53.659Z,0
2017-11-09T05:21:34.215Z,0
2017-11-09T05:22:14.789Z,0
2017-11-09T05:22:55.344Z,0
2017-11-09T05:23:35.909Z,0
2017-11-09T05:24:16.472Z,0
2017-11-09T05:24:57.105Z,0
2017-11-09T05:25:37.660Z,0
2017-11-09T05:26:18.214Z,0
2017-11-09T05:26:58.779Z,0
2017-11-09T05:27:39.338Z,0
2017-11-09T05:28:19.910Z,0
2017-11-09T05:29:00.479Z,0
2017-11-09T05:29:41.044Z,0
2017-11-09T05:30:21.627Z,0
2017-11-09T05:31:02.189Z,0
2017-11-09T05:31:42.776Z,0
2017-11-09T05:32:23.407Z,0
2017-11-09T05:33:03.997Z,0
2017-11-09T05:33:44.669Z,0
2017-11-09T05:34:25.236Z,0
2017-11-09T05:35:05.795Z,0
2017-11-09T05:35:46.392Z,0
2017-11-09T05:36:26.949Z,0
2017-11-09T05:37:07.514Z,0
2017-11-09T05:37:48.065Z,0
2017-11-09T05:38:28.621Z,0
2017-11-09T05:39:09.175Z,0
2017-11-09T05:39:49.745Z,0
2017-11-09T05:40:30.302Z,0
2017-11-09T05:41:10.863Z,0
2017-11-09T05:41:51.506Z,0
2017-11-09T05:42:32.063Z,0
2017-11-09T05:43:12.626Z,0
2017-11-09T05:43:53.207Z,0
2017-11-09T05:44:33.772Z,0
2017-11-09T05:45:14.340Z,0
2017-11-09T05:45:54.902Z,0
2017-11-09T05:46:35.446Z,0
2017-11-09T05:47:16.012Z,0
2017-11-09T05:47:56.621Z,0
2017-11-09T05:48:37.128Z,0
2017-11-09T05:49:17.693Z,0
2017-11-09T05:49:58.276Z,0
2017-11-09T05:50:38.830Z,0
2017-11-09T05:51:19.401Z,0
2017-11-09T05:51:59.964Z,0
2017-11-09T05:52:40.557Z,0
2017-11-09T05:53:21.116Z,0
2017-11-09T05:54:01.667Z,0
2017-11-09T05:54:42.237Z,0
2017-11-09T05:55:22.795Z,0
2017-11-09T05:56:03.362Z,0
2017-11-09T05:56:43.964Z,0
2017-11-09T05:57:24.529Z,0
2017-11-09T05:58:05.088Z,0
2017-11-09T05:58:45.648Z,0
2017-11-09T05:59:30.120Z,0
2017-11-09T06:00:10.766Z,0
2017-11-09T06:00:51.336Z,0
2017-11-09T06:01:31.901Z,0
2017-11-09T06:02:15.968Z,0
2017-11-09T06:02:59.661Z,0
2017-11-09T06:03:40.217Z,0
2017-11-09T06:04:20.799Z,0
2017-11-09T06:05:01.406Z,0
2017-11-09T06:05:42.019Z,0
2017-11-09T06:06:22.534Z,0
2017-11-09T06:07:03.108Z,0
2017-11-09T06:07:43.655Z,0
2017-11-09T06:08:24.240Z,0
2017-11-09T06:09:04.795Z,0
2017-11-09T06:09:45.365Z,4
2017-11-09T06:10:25.932Z,4
2017-11-09T06:11:06.500Z,4
2017-11-09T06:11:47.054Z,4
2017-11-09T06:12:27.632Z,4
2017-11-09T06:13:08.206Z,4
2017-11-09T06:13:48.734Z,0
2017-11-09T06:14:29.356Z,0
2017-11-09T06:15:09.935Z,4
2017-11-09T06:15:50.481Z,4
2017-11-09T06:16:31.031Z,4
2017-11-09T06:17:11.619Z,4
2017-11-09T06:17:52.170Z,4
2017-11-09T06:18:32.744Z,8
2017-11-09T06:19:13.301Z,4
2017-11-09T06:19:53.854Z,4
2017-11-09T06:20:34.414Z,4
2017-11-09T06:21:14.988Z,8
2017-11-09T06:21:55.553Z,8
2017-11-09T06:22:36.107Z,8
2017-11-09T06:23:16.667Z,8
2017-11-09T06:23:57.224Z,8
2017-11-09T06:24:37.762Z,12
2017-11-09T06:26:56.815Z,12
2017-11-09T06:27:37.327Z,12
2017-11-09T06:28:17.863Z,12
2017-11-09T06:28:58.425Z,16
2017-11-09T06:29:39.207Z,12
2017-11-09T06:30:19.777Z,16
2017-11-09T06:31:00.323Z,16
2017-11-09T06:31:40.865Z,20
2017-11-09T06:32:21.436Z,20
2017-11-09T06:33:01.979Z,20
2017-11-09T06:33:42.525Z,24
2017-11-09T06:34:23.042Z,24
2017-11-09T06:35:03.569Z,24
2017-11-09T06:35:44.148Z,24
2017-11-09T06:36:24.750Z,24
2017-11-09T06:37:05.215Z,24
2017-11-09T06:37:45.775Z,24
2017-11-09T06:38:26.324Z,28
2017-11-09T06:39:06.855Z,28
2017-11-09T06:39:47.384Z,28
2017-11-09T06:40:27.939Z,28
2017-11-09T06:41:08.478Z,28
2017-11-09T06:41:49.010Z,28
2017-11-09T06:42:29.651Z,28
2017-11-09T06:43:10.202Z,28
2017-11-09T06:43:50.784Z,28
2017-11-09T06:44:31.696Z,28
2017-11-09T06:45:12.215Z,28
2017-11-09T06:45:52.794Z,32
2017-11-09T06:46:33.414Z,32
2017-11-09T06:47:13.858Z,32
2017-11-09T06:47:54.437Z,32
2017-11-09T06:48:34.956Z,36
2017-11-09T06:49:15.493Z,32
2017-11-09T06:49:56.100Z,36
2017-11-09T06:50:36.635Z,36
2017-11-09T06:51:22.983Z,40
2017-11-09T06:52:03.522Z,40
2017-11-09T06:52:44.085Z,40
2017-11-09T06:53:24.651Z,48
2017-11-09T06:54:05.204Z,44
2017-11-09T06:54:46.086Z,48
2017-11-09T06:55:26.640Z,52
2017-11-09T06:56:07.209Z,60
2017-11-09T06:56:47.753Z,60
2017-11-09T06:57:28.266Z,64
2017-11-09T06:58:08.836Z,64
2017-11-09T06:58:49.393Z,64
2017-11-09T06:59:30.021Z,68
2017-11-09T07:00:10.618Z,72
2017-11-09T07:00:51.147Z,76
2017-11-09T07:01:31.723Z,76
2017-11-09T07:02:12.348Z,80
2017-11-09T07:02:52.906Z,92
2017-11-09T07:03:33.580Z,96
2017-11-09T07:04:14.070Z,104
2017-11-09T07:04:54.734Z,112
2017-11-09T07:05:35.312Z,120
2017-11-09T07:06:16.123Z,124
2017-11-09T07:06:56.721Z,132
2017-11-09T07:07:37.219Z,148
2017-11-09T07:08:17.787Z,152
2017-11-09T07:08:58.370Z,160
2017-11-09T07:09:39.087Z,172
2017-11-09T07:10:19.623Z,176
2017-11-09T07:11:00.263Z,184
2017-11-09T07:11:40.790Z,184
2017-11-09T07:12:21.410Z,180
2017-11-09T07:13:01.905Z,176
2017-11-09T07:13:42.443Z,168
2017-11-09T07:14:22.994Z,160
2017-11-09T07:15:03.586Z,164
2017-11-09T07:15:44.173Z,160
2017-11-09T07:16:24.735Z,160
2017-11-09T07:17:05.254Z,164
2017-11-09T07:17:45.799Z,164
2017-11-09T07:18:26.382Z,168
2017-11-09T07:19:06.913Z,172
2017-11-09T07:19:47.447Z,176
2017-11-09T07:20:28.005Z,176
2017-11-09T07:21:08.505Z,184
2017-11-09T07:21:49.061Z,188
2017-11-09T07:22:29.620Z,196
2017-11-09T07:23:10.126Z,192
2017-11-09T07:23:50.698Z,188
2017-11-09T07:24:31.216Z,184
2017-11-09T07:25:11.791Z,184
2017-11-09T07:25:52.325Z,188
2017-11-09T07:26:32.831Z,188
2017-11-09T07:27:13.392Z,184
2017-11-09T07:27:53.924Z,184
2017-11-09T07:28:34.500Z,180
2017-11-09T07:29:14.990Z,180
2017-11-09T07:29:55.534Z,184
2017-11-09T07:30:36.105Z,184
2017-11-09T07:31:16.661Z,184
2017-11-09T07:31:57.209Z,184
2017-11-09T07:32:37.777Z,180
2017-11-09T07:33:18.317Z,188
2017-11-09T07:33:58.879Z,196
2017-11-09T07:34:39.410Z,196
2017-11-09T07:35:19.961Z,196
2017-11-09T07:36:00.544Z,192
2017-11-09T07:36:41.116Z,196
2017-11-09T07:37:21.578Z,196
2017-11-09T07:38:02.094Z,196
2017-11-09T07:38:42.677Z,200
2017-11-09T07:39:23.154Z,192
2017-11-09T07:40:03.722Z,188
2017-11-09T07:40:44.257Z,204
2017-11-09T07:41:24.870Z,208
2017-11-09T07:42:05.390Z,216
2017-11-09T07:42:45.938Z,228
2017-11-09T07:43:26.464Z,224
2017-11-09T07:44:07.030Z,224
2017-11-09T07:44:47.543Z,228
2017-11-09T07:45:28.071Z,232
2017-11-09T07:46:08.807Z,248
2017-11-09T07:46:49.312Z,256
2017-11-09T07:47:29.856Z,264
2017-11-09T07:48:10.436Z,272
2017-11-09T07:48:50.971Z,272
2017-11-09T07:49:31.528Z,272
2017-11-09T07:50:12.379Z,284
2017-11-09T07:50:53.527Z,304
2017-11-09T07:51:34.381Z,312
2017-11-09T07:52:14.786Z,320
2017-11-09T07:52:55.312Z,336
2017-11-09T07:53:35.879Z,344
2017-11-09T07:54:16.436Z,344
2017-11-09T07:54:57.015Z,336
2017-11-09T07:55:37.539Z,340
2017-11-09T07:56:18.068Z,328
2017-11-09T07:56:58.570Z,336
2017-11-09T07:57:39.089Z,340
2017-11-09T07:58:19.672Z,340
2017-11-09T07:59:00.212Z,336
2017-11-09T07:59:40.752Z,320
2017-11-09T08:00:21.252Z,316
2017-11-09T08:01:01.778Z,312
2017-11-09T08:01:42.320Z,316
2017-11-09T08:02:22.892Z,312
2017-11-09T08:03:03.486Z,316
2017-11-09T08:03:44.021Z,324
2017-11-09T08:04:24.585Z,332
2017-11-09T08:05:05.145Z,332
2017-11-09T08:05:45.675Z,348
2017-11-09T08:06:26.191Z,372
2017-11-09T08:07:06.757Z,388
2017-11-09T08:07:47.312Z,400
2017-11-09T08:08:27.821Z,412
2017-11-09T08:09:08.555Z,424
2017-11-09T08:09:49.069Z,432
2017-11-09T08:10:29.640Z,424
2017-11-09T08:11:10.195Z,448
2017-11-09T08:11:50.737Z,468
2017-11-09T08:12:31.260Z,464
2017-11-09T08:13:11.996Z,452
2017-11-09T08:13:52.521Z,452
2017-11-09T08:14:33.056Z,448
2017-11-09T08:15:13.595Z,436
2017-11-09T08:15:54.124Z,416
2017-11-09T08:16:34.666Z,404
2017-11-09T08:17:15.216Z,388
2017-11-09T08:17:55.778Z,364
2017-11-09T08:18:36.278Z,360
2017-11-09T08:19:16.843Z,352
2017-11-09T08:19:57.409Z,344
2017-11-09T08:20:37.899Z,340
2017-11-09T08:21:18.465Z,344
2017-11-09T08:21:59.051Z,340
2017-11-09T08:22:39.663Z,340
2017-11-09T08:23:20.216Z,332
2017-11-09T08:24:00.765Z,340
2017-11-09T08:24:41.311Z,332
2017-11-09T08:25:21.876Z,348
2017-11-09T08:26:02.438Z,360
2017-11-09T08:26:43.061Z,364
2017-11-09T08:27:23.630Z,380
2017-11-09T08:28:04.207Z,396
2017-11-09T08:28:44.760Z,404
2017-11-09T08:29:25.318Z,416
2017-11-09T08:30:05.957Z,444
2017-11-09T08:30:46.525Z,452
2017-11-09T08:31:27.065Z,460
2017-11-09T08:32:07.608Z,480
2017-11-09T08:32:48.167Z,488
2017-11-09T08:33:28.687Z,492
2017-11-09T08:34:09.248Z,500
2017-11-09T08:34:49.812Z,496
2017-11-09T08:35:30.389Z,492
2017-11-09T08:36:10.990Z,492
2017-11-09T08:36:51.467Z,468
2017-11-09T08:37:32.034Z,472
2017-11-09T08:38:12.583Z,472
2017-11-09T08:38:53.157Z,468
2017-11-09T08:39:33.674Z,464
2017-11-09T08:40:14.242Z,468
2017-11-09T08:40:54.806Z,484
2017-11-09T08:41:35.322Z,508
2017-11-09T08:42:15.976Z,524
2017-11-09T08:42:56.512Z,544
2017-11-09T08:43:37.072Z,548
2017-11-09T08:44:17.599Z,556
2017-11-09T08:44:58.162Z,548
2017-11-09T08:45:38.727Z,552
2017-11-09T08:46:19.302Z,536
2017-11-09T08:46:59.852Z,520
2017-11-09T08:47:40.387Z,528
2017-11-09T08:48:20.994Z,524
2017-11-09T08:49:01.508Z,516
2017-11-09T08:49:42.071Z,508
2017-11-09T08:50:22.596Z,508
2017-11-09T08:51:03.122Z,516
2017-11-09T08:51:43.666Z,524
2017-11-09T08:52:24.362Z,516
2017-11-09T08:53:04.940Z,532
2017-11-09T08:53:45.470Z,560
2017-11-09T08:54:26.014Z,560
2017-11-09T08:55:06.552Z,588
2017-11-09T08:55:47.104Z,604
2017-11-09T08:56:27.708Z,604
2017-11-09T08:57:08.227Z,616
2017-11-09T08:57:48.772Z,620
2017-11-09T08:58:29.331Z,644
2017-11-09T08:59:09.854Z,672
2017-11-09T08:59:50.415Z,688
2017-11-09T09:00:30.951Z,704
2017-11-09T09:01:11.471Z,720
2017-11-09T09:01:52.085Z,712
2017-11-09T09:02:32.679Z,712
2017-11-09T09:03:13.165Z,708
2017-11-09T09:03:53.736Z,728
2017-11-09T09:04:34.306Z,760
2017-11-09T09:05:14.834Z,736
2017-11-09T09:05:55.397Z,732
2017-11-09T09:06:35.942Z,776
2017-11-09T09:07:16.483Z,800
2017-11-09T09:07:57.027Z,832
2017-11-09T09:08:37.549Z,820
2017-11-09T09:09:18.110Z,840
2017-11-09T09:09:58.643Z,904
2017-11-09T09:10:39.214Z,940
2017-11-09T09:11:19.722Z,932
2017-11-09T09:12:00.240Z,928
2017-11-09T09:12:40.801Z,984
2017-11-09T09:13:21.348Z,988
2017-11-09T09:14:01.905Z,992
2017-11-09T09:14:42.451Z,1012
2017-11-09T09:15:22.996Z,964
2017-11-09T09:16:03.561Z,960
2017-11-09T09:16:44.104Z,984
2017-11-09T09:17:24.633Z,1000
2017-11-09T09:18:05.157Z,996
2017-11-09T09:18:45.736Z,976
2017-11-09T09:19:26.255Z,1000
2017-11-09T09:20:06.761Z,1028
2017-11-09T09:20:47.318Z,1052
2017-11-09T09:21:27.888Z,1080
2017-11-09T09:22:08.415Z,1116
2017-11-09T09:24:36.954Z,1268
2017-11-09T09:25:17.488Z,1292
2017-11-09T09:25:58.036Z,1308
2017-11-09T09:26:38.562Z,1228
2017-11-09T09:27:19.110Z,1268
2017-11-09T09:28:00.343Z,1256
2017-11-09T09:28:40.886Z,1256
2017-11-09T09:29:21.644Z,1224
2017-11-09T09:30:02.166Z,1240
2017-11-09T09:30:42.700Z,1244
2017-11-09T09:31:23.209Z,1224
2017-11-09T09:32:03.787Z,1228
2017-11-09T09:32:44.302Z,1216
2017-11-09T09:33:24.862Z,1196
2017-11-09T09:34:05.461Z,1196
2017-11-09T09:34:45.927Z,1200
2017-11-09T09:35:26.454Z,1256
2017-11-09T09:36:07.065Z,1256
2017-11-09T09:36:47.576Z,1232
2017-11-09T09:37:28.118Z,1176
2017-11-09T09:38:08.659Z,1148
2017-11-09T09:38:49.185Z,1128
2017-11-09T09:39:29.713Z,1084
2017-11-09T09:40:10.253Z,1044
2017-11-09T09:40:50.811Z,1020
2017-11-09T09:41:31.330Z,1036
2017-11-09T09:42:11.856Z,1020
2017-11-09T09:42:52.478Z,1024
2017-11-09T09:43:32.942Z,1012
2017-11-09T09:44:13.517Z,1032
2017-11-09T09:44:54.148Z,1028
2017-11-09T09:45:34.699Z,1020
2017-11-09T09:46:15.288Z,1016
2017-11-09T09:46:55.829Z,996
2017-11-09T09:47:36.415Z,996
2017-11-09T09:48:16.901Z,976
2017-11-09T09:48:57.438Z,992